createdAt,value
2023-02-11T00:00:28.572Z,65.84
2023-02-11T00:02:58.794Z,65.56
2023-02-11T00:05:31.515Z,65.85
2023-02-11T00:08:01.553Z,66.00
2023-02-11T00:10:31.696Z,65.97
2023-02-11T00:13:01.846Z,65.98
2023-02-11T00:15:31.995Z,66.24
2023-02-11T00:18:02.011Z,66.25
2023-02-11T00:20:34.653Z,66.06
2023-02-11T00:23:04.661Z,66.03
2023-02-11T00:25:34.805Z,66.10
2023-02-11T00:28:04.932Z,66.11
2023-02-11T00:30:35.460Z,66.03
2023-02-11T00:33:05.701Z,66.24
2023-02-11T00:35:40.470Z,66.45
2023-02-11T00:38:11.238Z,66.72
2023-02-11T00:40:41.268Z,66.26
2023-02-11T00:43:11.358Z,66.58
2023-02-11T00:45:41.414Z,66.65
2023-02-11T00:48:11.466Z,66.18
2023-02-11T00:50:44.137Z,66.26
2023-02-11T00:53:14.388Z,66.63
2023-02-11T00:55:44.503Z,66.57
2023-02-11T00:58:14.681Z,66.49
2023-02-11T01:00:45.775Z,66.48
2023-02-11T01:03:17.095Z,66.44
2023-02-11T01:05:50.080Z,66.25
2023-02-11T01:08:20.436Z,66.65
2023-02-11T01:10:58.002Z,66.47
2023-02-11T01:13:29.026Z,66.43
2023-02-11T01:16:00.124Z,66.58
2023-02-11T01:18:30.524Z,66.94
2023-02-11T01:21:03.204Z,67.32
2023-02-11T01:23:33.408Z,67.26
2023-02-11T01:26:03.484Z,67.46
2023-02-11T01:28:34.790Z,67.79
2023-02-11T01:31:06.329Z,67.46
2023-02-11T01:33:36.423Z,67.49
2023-02-11T01:36:12.281Z,67.36
2023-02-11T01:38:44.611Z,67.33
2023-02-11T01:41:17.569Z,67.50
2023-02-11T01:43:50.206Z,67.15
2023-02-11T01:46:36.619Z,67.55
2023-02-11T01:49:10.418Z,67.70
2023-02-11T01:51:46.970Z,67.54
2023-02-11T01:54:35.785Z,67.45
2023-02-11T01:57:20.164Z,67.61
2023-02-11T01:59:57.535Z,68.43
2023-02-11T02:02:33.742Z,68.40
2023-02-11T02:05:09.989Z,68.30
2023-02-11T02:07:50.230Z,68.21
2023-02-11T02:10:25.816Z,68.04
2023-02-11T02:12:56.022Z,68.03
2023-02-11T02:15:35.424Z,68.20
2023-02-11T02:18:24.322Z,68.24
2023-02-11T02:21:27.469Z,67.96
2023-02-11T02:24:34.616Z,68.67
2023-02-11T02:27:26.976Z,68.75
2023-02-11T02:30:38.019Z,68.21
2023-02-11T02:33:25.086Z,68.44
2023-02-11T02:36:07.390Z,68.68
2023-02-11T02:38:41.498Z,68.86
2023-02-11T02:41:14.122Z,68.22
2023-02-11T02:43:46.845Z,68.88
2023-02-11T02:46:20.012Z,68.93
2023-02-11T02:48:54.454Z,68.99
2023-02-11T02:51:42.473Z,68.97
2023-02-11T02:54:31.911Z,68.87
2023-02-11T02:57:13.018Z,68.78
2023-02-11T02:59:53.562Z,69.06
2023-02-11T03:02:29.954Z,69.06
2023-02-11T03:05:09.218Z,69.19
2023-02-11T03:07:44.765Z,69.25
2023-02-11T03:10:19.995Z,68.96
2023-02-11T03:12:52.532Z,69.05
2023-02-11T03:15:24.567Z,69.42
2023-02-11T03:17:57.525Z,69.21
2023-02-11T03:20:33.008Z,69.22
2023-02-11T03:23:09.230Z,69.34
2023-02-11T03:25:46.986Z,69.34
2023-02-11T03:28:22.053Z,69.34
2023-02-11T03:30:58.232Z,69.52
2023-02-11T03:33:32.015Z,69.58
2023-02-11T03:36:12.204Z,69.47
2023-02-11T03:38:49.000Z,69.82
2023-02-11T03:41:24.331Z,69.69
2023-02-11T03:43:59.389Z,69.67
2023-02-11T03:46:34.346Z,69.29
2023-02-11T03:49:08.191Z,69.22
2023-02-11T03:51:42.320Z,69.22
2023-02-11T03:54:17.311Z,69.01
2023-02-11T03:56:52.827Z,68.69
2023-02-11T03:59:23.241Z,68.90
2023-02-11T04:01:53.536Z,68.98
2023-02-11T04:04:23.863Z,68.73
2023-02-11T04:06:56.579Z,68.72
2023-02-11T04:09:26.632Z,69.22
2023-02-11T04:11:56.716Z,69.45
2023-02-11T04:14:26.713Z,69.59
2023-02-11T04:16:56.772Z,69.65
2023-02-11T04:19:26.918Z,69.66
2023-02-11T04:21:59.758Z,69.67
2023-02-11T04:24:29.957Z,69.78
2023-02-11T04:27:00.000Z,69.86
2023-02-11T04:29:30.318Z,69.01
2023-02-11T04:32:00.492Z,69.72
2023-02-11T04:34:30.719Z,69.40
2023-02-11T04:37:03.455Z,69.12
2023-02-11T04:39:33.533Z,68.88
2023-02-11T04:42:03.787Z,69.61
2023-02-11T04:44:34.243Z,69.54
2023-02-11T04:47:04.411Z,69.53
2023-02-11T04:49:34.531Z,69.31
2023-02-11T04:52:07.172Z,69.49
2023-02-11T04:54:37.490Z,69.85
2023-02-11T04:57:07.640Z,69.78
2023-02-11T04:59:37.687Z,69.44
2023-02-11T05:02:08.148Z,69.73
2023-02-11T05:04:38.201Z,69.50
2023-02-11T05:07:10.992Z,69.75
2023-02-11T05:09:41.089Z,69.80
2023-02-11T05:12:11.259Z,69.77
2023-02-11T05:14:41.338Z,69.50
2023-02-11T05:17:11.575Z,69.04
2023-02-11T05:19:41.651Z,69.01
2023-02-11T05:22:14.993Z,68.94
2023-02-11T05:24:45.026Z,69.18
2023-02-11T05:27:15.197Z,68.95
2023-02-11T05:29:45.303Z,69.23
2023-02-11T05:32:15.365Z,69.51
2023-02-11T05:34:45.590Z,69.49
2023-02-11T05:37:18.310Z,69.27
2023-02-11T05:39:48.444Z,69.66
2023-02-11T05:42:18.558Z,69.28
2023-02-11T05:44:50.535Z,69.08
2023-02-11T05:47:20.839Z,69.31
2023-02-11T05:49:50.935Z,69.33
2023-02-11T05:52:23.956Z,68.70
2023-02-11T05:54:54.555Z,68.94
2023-02-11T05:57:24.673Z,69.33
2023-02-11T05:59:54.787Z,69.32
2023-02-11T06:02:24.895Z,69.06
2023-02-11T06:04:55.012Z,68.94
2023-02-11T06:07:27.637Z,69.41
2023-02-11T06:09:57.765Z,69.42
2023-02-11T06:12:27.958Z,69.50
2023-02-11T06:14:58.025Z,69.58
2023-02-11T06:17:29.280Z,69.47
2023-02-11T06:20:08.739Z,69.83
2023-02-11T06:22:44.331Z,69.68
2023-02-11T06:25:19.373Z,69.75
2023-02-11T06:27:51.706Z,69.76
2023-02-11T06:30:25.792Z,70.06
2023-02-11T06:33:05.831Z,70.10
2023-02-11T06:35:36.883Z,69.95
2023-02-11T06:38:10.784Z,70.67
2023-02-11T06:40:42.512Z,70.52
2023-02-11T06:43:12.876Z,70.67
2023-02-11T06:45:50.159Z,70.60
2023-02-11T06:48:20.280Z,70.43
2023-02-11T06:51:02.626Z,71.20
2023-02-11T06:53:44.381Z,71.88
2023-02-11T06:56:18.187Z,71.74
2023-02-11T06:58:58.589Z,72.27
2023-02-11T07:01:30.494Z,72.40
2023-02-11T07:04:01.797Z,72.67
2023-02-11T07:06:32.545Z,73.39
2023-02-11T07:09:20.406Z,73.55
2023-02-11T07:11:51.809Z,74.44
2023-02-11T07:14:24.525Z,74.55
2023-02-11T07:16:56.401Z,74.96
2023-02-11T07:19:26.475Z,75.76
2023-02-11T07:21:56.572Z,75.66
2023-02-11T07:24:34.241Z,75.95
2023-02-11T07:27:07.855Z,76.10
2023-02-11T07:29:43.157Z,76.54
2023-02-11T07:32:15.915Z,76.84
2023-02-11T07:34:46.088Z,77.17
2023-02-11T07:37:16.539Z,77.34
2023-02-11T07:39:57.494Z,77.28
2023-02-11T07:42:29.313Z,77.12
2023-02-11T07:44:59.591Z,76.48
2023-02-11T07:47:29.722Z,75.82
2023-02-11T07:50:02.988Z,75.90
2023-02-11T07:52:33.558Z,75.74
2023-02-11T07:55:11.259Z,75.78
2023-02-11T07:57:42.913Z,75.75
2023-02-11T08:00:23.833Z,74.68
2023-02-11T08:02:55.027Z,73.13
2023-02-11T08:05:25.053Z,73.20
2023-02-11T08:07:55.665Z,73.07
2023-02-11T08:10:28.649Z,73.84
2023-02-11T08:12:59.147Z,74.05
2023-02-11T08:15:29.334Z,74.02
2023-02-11T08:17:59.357Z,72.69
2023-02-11T08:20:29.566Z,73.06
2023-02-11T08:22:59.688Z,73.48
2023-02-11T08:25:32.670Z,73.09
2023-02-11T08:28:02.950Z,73.49
2023-02-11T08:30:33.080Z,73.64
2023-02-11T08:33:03.416Z,73.68
2023-02-11T08:35:33.938Z,73.49
2023-02-11T08:38:06.515Z,73.16
2023-02-11T08:40:40.588Z,70.78
2023-02-11T08:43:13.671Z,70.72
2023-02-11T08:45:48.934Z,70.63
2023-02-11T08:48:21.799Z,69.74
2023-02-11T08:50:51.963Z,70.83
2023-02-11T08:53:22.178Z,70.55
2023-02-11T08:55:56.785Z,69.82
2023-02-11T08:58:26.970Z,69.40
2023-02-11T09:00:57.067Z,68.91
2023-02-11T09:03:27.342Z,69.68
2023-02-11T09:05:57.557Z,69.75
2023-02-11T09:08:27.706Z,70.16
2023-02-11T09:11:02.158Z,69.80
2023-02-11T09:13:32.515Z,68.56
2023-02-11T09:16:04.901Z,67.96
2023-02-11T09:18:35.632Z,68.40
2023-02-11T09:21:08.111Z,68.39
2023-02-11T09:23:43.931Z,66.98
2023-02-11T09:26:18.832Z,67.99
2023-02-11T09:28:49.494Z,66.98
2023-02-11T09:31:23.495Z,66.40
2023-02-11T09:33:56.163Z,66.40
2023-02-11T09:36:28.975Z,66.85
2023-02-11T09:39:02.115Z,66.05
2023-02-11T09:41:47.586Z,66.41
2023-02-11T09:44:23.066Z,66.16
2023-02-11T09:46:59.740Z,66.06
2023-02-11T09:49:38.567Z,65.56
2023-02-11T09:52:14.441Z,64.30
2023-02-11T09:54:52.642Z,65.14
2023-02-11T09:57:29.169Z,65.13
2023-02-11T10:00:00.892Z,64.19
2023-02-11T10:02:40.081Z,63.95
2023-02-11T10:05:30.918Z,63.67
2023-02-11T10:08:10.050Z,63.74
2023-02-11T10:10:54.205Z,62.25
2023-02-11T10:13:51.931Z,63.42
2023-02-11T10:16:33.083Z,64.16
2023-02-11T10:19:22.527Z,63.64
2023-02-11T10:22:02.815Z,63.18
2023-02-11T10:24:34.537Z,63.00
2023-02-11T10:27:11.908Z,62.27
2023-02-11T10:29:49.447Z,62.15
2023-02-11T10:32:30.901Z,61.43
2023-02-11T10:35:05.919Z,60.37
2023-02-11T10:37:36.360Z,60.98
2023-02-11T10:40:07.010Z,60.28
2023-02-11T10:42:39.138Z,59.79
2023-02-11T10:45:22.841Z,59.86
2023-02-11T10:47:52.989Z,58.23
2023-02-11T10:50:26.723Z,59.80
2023-02-11T10:53:14.904Z,59.78
2023-02-11T10:55:53.444Z,59.54
2023-02-11T10:58:29.629Z,58.25
2023-02-11T11:01:12.974Z,58.18
2023-02-11T11:03:52.584Z,53.83
2023-02-11T11:06:33.754Z,54.98
2023-02-11T11:09:04.818Z,55.14
2023-02-11T11:11:34.882Z,55.57
2023-02-11T11:14:05.972Z,56.20
2023-02-11T11:16:39.582Z,55.12
2023-02-11T11:19:28.375Z,55.37
2023-02-11T11:22:00.527Z,55.21
2023-02-11T11:24:35.353Z,55.25
2023-02-11T11:27:08.402Z,51.29
2023-02-11T11:29:41.601Z,52.41
2023-02-11T11:32:23.464Z,52.93
2023-02-11T11:34:55.866Z,53.13
2023-02-11T11:37:29.058Z,52.86
2023-02-11T11:40:02.117Z,52.51
2023-02-11T11:42:34.065Z,52.17
2023-02-11T11:45:06.670Z,52.63
2023-02-11T11:47:46.212Z,50.81
2023-02-11T11:50:29.735Z,51.44
2023-02-11T11:53:07.696Z,51.41
2023-02-11T11:55:42.941Z,53.01
2023-02-11T11:58:18.344Z,50.32
2023-02-11T12:01:00.905Z,49.36
2023-02-11T12:04:02.205Z,49.81
2023-02-11T12:06:39.229Z,50.60
2023-02-11T12:09:19.628Z,49.88
2023-02-11T12:12:04.631Z,50.49
2023-02-11T12:14:46.398Z,49.02
2023-02-11T12:17:25.560Z,49.27
2023-02-11T12:20:21.244Z,49.00
2023-02-11T12:23:02.904Z,48.46
2023-02-11T12:25:38.679Z,48.76
2023-02-11T12:28:25.519Z,48.65
2023-02-11T12:31:27.015Z,48.39
2023-02-11T12:34:17.553Z,47.79
2023-02-11T12:37:07.932Z,47.37
2023-02-11T12:39:46.208Z,48.25
2023-02-11T12:42:42.894Z,48.23
2023-02-11T12:45:24.932Z,47.91
2023-02-11T12:48:13.047Z,47.70
2023-02-11T12:50:56.939Z,46.91
2023-02-11T12:53:55.816Z,47.03
2023-02-11T12:56:33.727Z,46.53
2023-02-11T12:59:08.285Z,46.98
2023-02-11T13:01:43.023Z,46.57
2023-02-11T13:04:21.368Z,46.78
2023-02-11T13:06:55.156Z,47.24
2023-02-11T13:09:33.544Z,46.13
2023-02-11T13:12:29.198Z,46.59
2023-02-11T13:15:05.020Z,46.44
2023-02-11T13:17:43.782Z,46.76
2023-02-11T13:20:24.702Z,47.50
2023-02-11T13:23:03.025Z,46.83
2023-02-11T13:25:40.786Z,47.10
2023-02-11T13:28:25.759Z,46.81
2023-02-11T13:31:02.733Z,47.12
2023-02-11T13:33:39.921Z,46.54
2023-02-11T13:36:20.929Z,46.47
2023-02-11T13:38:58.931Z,46.56
2023-02-11T13:41:38.245Z,46.36
2023-02-11T13:44:27.541Z,47.04
2023-02-11T13:47:01.964Z,46.20
2023-02-11T13:49:41.061Z,46.66
2023-02-11T13:52:25.029Z,45.07
2023-02-11T13:54:57.801Z,46.06
2023-02-11T13:58:11.036Z,44.99
2023-02-11T14:00:52.044Z,45.37
2023-02-11T14:03:48.022Z,44.82
2023-02-11T14:06:37.364Z,44.66
2023-02-11T14:09:38.793Z,45.26
2023-02-11T14:12:38.555Z,44.95
2023-02-11T14:15:28.214Z,73.50
2023-02-11T14:17:58.392Z,92.72
2023-02-11T14:20:42.147Z,68.94
2023-02-11T14:23:27.391Z,52.64
2023-02-11T14:26:11.889Z,45.97
2023-02-11T14:28:46.934Z,39.89
2023-02-11T14:31:24.165Z,37.46
2023-02-11T14:34:24.543Z,35.56
2023-02-11T14:37:06.311Z,36.44
2023-02-11T14:39:54.225Z,37.99
2023-02-11T14:42:27.824Z,39.45
2023-02-11T14:45:01.134Z,40.95
2023-02-11T14:47:43.522Z,41.08
2023-02-11T14:50:22.279Z,42.05
2023-02-11T14:52:53.257Z,43.25
2023-02-11T14:55:29.953Z,44.06
2023-02-11T14:58:17.494Z,44.90
2023-02-11T15:00:53.062Z,45.59
2023-02-11T15:03:38.245Z,46.47
2023-02-11T15:06:15.630Z,47.12
2023-02-11T15:08:48.556Z,47.50
2023-02-11T15:11:22.713Z,47.81
2023-02-11T15:13:55.520Z,48.76
2023-02-11T15:16:27.916Z,48.93
2023-02-11T15:19:05.156Z,48.92
2023-02-11T15:21:37.755Z,48.98
2023-02-11T15:24:24.479Z,49.20
2023-02-11T15:27:05.592Z,48.91
2023-02-11T15:29:41.074Z,49.30
2023-02-11T15:32:18.080Z,49.67
2023-02-11T15:34:53.017Z,50.34
2023-02-11T15:37:25.695Z,50.83
2023-02-11T15:39:56.750Z,51.70
2023-02-11T15:42:28.203Z,51.49
2023-02-11T15:45:29.236Z,51.96
2023-02-11T15:48:03.055Z,51.75
2023-02-11T15:50:40.860Z,51.77
2023-02-11T15:53:25.991Z,51.49
2023-02-11T15:56:00.376Z,51.60
2023-02-11T15:58:30.567Z,52.55
2023-02-11T16:01:00.809Z,53.07
2023-02-11T16:03:33.186Z,53.18
2023-02-11T16:06:21.621Z,52.30
2023-02-11T16:09:03.030Z,51.75
2023-02-11T16:11:34.977Z,52.39
2023-02-11T16:14:22.362Z,52.50
2023-02-11T16:16:55.220Z,52.56
2023-02-11T16:19:27.768Z,53.28
2023-02-11T16:22:03.378Z,53.57
2023-02-11T16:24:36.297Z,54.05
2023-02-11T16:27:09.615Z,53.99
2023-02-11T16:29:43.758Z,54.06
2023-02-11T16:32:22.631Z,53.75
2023-02-11T16:34:53.770Z,53.66
2023-02-11T16:37:27.070Z,53.56
2023-02-11T16:39:58.344Z,53.45
2023-02-11T16:42:28.403Z,53.32
2023-02-11T16:44:59.977Z,53.24
2023-02-11T16:47:32.680Z,53.55
2023-02-11T16:50:04.628Z,53.92
2023-02-11T16:52:38.795Z,54.12
2023-02-11T16:55:09.531Z,53.96
2023-02-11T16:57:39.651Z,53.86
2023-02-11T17:00:11.552Z,54.18
2023-02-11T17:02:42.357Z,54.08
2023-02-11T17:05:23.115Z,54.42
2023-02-11T17:07:55.852Z,54.68
2023-02-11T17:10:26.854Z,55.30
2023-02-11T17:12:56.587Z,55.41
2023-02-11T17:15:26.619Z,55.34
2023-02-11T17:17:56.730Z,55.61
2023-02-11T17:20:27.197Z,55.66
2023-02-11T17:23:00.745Z,55.65
2023-02-11T17:25:31.362Z,56.63
2023-02-11T17:28:01.485Z,56.43
2023-02-11T17:30:31.611Z,56.36
2023-02-11T17:33:01.746Z,56.57
2023-02-11T17:35:31.886Z,56.77
2023-02-11T17:38:04.642Z,56.57
2023-02-11T17:40:34.646Z,56.69
2023-02-11T17:43:04.728Z,57.14
2023-02-11T17:45:34.757Z,57.71
2023-02-11T17:48:04.953Z,57.78
2023-02-11T17:50:38.679Z,57.90
2023-02-11T17:53:11.378Z,57.39
2023-02-11T17:55:41.559Z,57.53
2023-02-11T17:58:11.641Z,57.84
2023-02-11T18:00:41.744Z,57.75
2023-02-11T18:03:11.997Z,57.64
2023-02-11T18:05:42.320Z,57.92
2023-02-11T18:08:15.059Z,57.82
2023-02-11T18:10:45.736Z,58.01
2023-02-11T18:13:15.868Z,57.79
2023-02-11T18:15:46.098Z,58.25
2023-02-11T18:18:16.284Z,58.53
2023-02-11T18:20:47.932Z,58.63
2023-02-11T18:23:20.561Z,58.59
2023-02-11T18:25:50.971Z,58.49
2023-02-11T18:28:21.331Z,58.21
2023-02-11T18:30:51.493Z,57.98
2023-02-11T18:33:21.555Z,58.10
2023-02-11T18:35:51.983Z,58.18
2023-02-11T18:38:25.011Z,58.50
2023-02-11T18:40:55.097Z,58.50
2023-02-11T18:43:25.311Z,58.85
2023-02-11T18:45:55.631Z,58.72
2023-02-11T18:48:26.859Z,58.66
2023-02-11T18:50:58.304Z,58.70
2023-02-11T18:53:31.158Z,58.89
2023-02-11T18:56:01.737Z,59.20
2023-02-11T18:58:31.827Z,59.15
2023-02-11T19:01:02.194Z,59.40
2023-02-11T19:03:32.354Z,59.60
2023-02-11T19:06:02.428Z,60.24
2023-02-11T19:08:35.165Z,60.50
2023-02-11T19:11:07.987Z,60.70
2023-02-11T19:13:38.113Z,60.31
2023-02-11T19:16:11.471Z,60.30
2023-02-11T19:18:41.944Z,59.92
2023-02-11T19:21:13.259Z,59.69
2023-02-11T19:23:45.911Z,59.45
2023-02-11T19:26:15.954Z,59.25
2023-02-11T19:28:45.986Z,59.29
2023-02-11T19:31:16.875Z,59.22
2023-02-11T19:33:46.711Z,59.23
2023-02-11T19:36:18.747Z,59.41
2023-02-11T19:38:51.476Z,59.66
2023-02-11T19:41:23.241Z,59.24
2023-02-11T19:43:56.772Z,59.50
2023-02-11T19:46:28.049Z,60.24
2023-02-11T19:48:58.418Z,60.17
2023-02-11T19:51:28.663Z,60.16
2023-02-11T19:54:02.283Z,60.26
2023-02-11T19:56:32.544Z,60.15
2023-02-11T19:59:04.831Z,60.47
2023-02-11T20:01:34.946Z,60.85
2023-02-11T20:04:05.101Z,61.11
2023-02-11T20:06:36.801Z,61.07
2023-02-11T20:09:11.742Z,61.19
2023-02-11T20:11:42.775Z,61.50
2023-02-11T20:14:14.919Z,61.71
2023-02-11T20:16:49.831Z,62.31
2023-02-11T20:19:22.745Z,62.68
2023-02-11T20:21:58.260Z,62.94
2023-02-11T20:24:31.005Z,63.03
2023-02-11T20:27:01.064Z,63.50
2023-02-11T20:29:31.981Z,63.93
2023-02-11T20:32:03.231Z,63.92
2023-02-11T20:34:33.036Z,63.55
2023-02-11T20:37:04.255Z,63.82
2023-02-11T20:39:41.025Z,63.77
2023-02-11T20:42:12.614Z,63.77
2023-02-11T20:44:42.666Z,63.74
2023-02-11T20:47:12.791Z,63.40
2023-02-11T20:49:42.887Z,63.41
2023-02-11T20:52:13.024Z,63.54
2023-02-11T20:54:45.930Z,63.63
2023-02-11T20:57:16.038Z,63.75
2023-02-11T20:59:46.110Z,63.93
2023-02-11T21:02:16.212Z,64.30
2023-02-11T21:04:46.239Z,64.21
2023-02-11T21:07:16.341Z,64.06
2023-02-11T21:09:49.085Z,63.93
2023-02-11T21:12:19.168Z,64.02
2023-02-11T21:14:49.368Z,63.78
2023-02-11T21:17:19.488Z,64.15
2023-02-11T21:19:49.632Z,64.05
2023-02-11T21:22:19.666Z,64.05
2023-02-11T21:24:52.567Z,64.17
2023-02-11T21:27:23.522Z,64.29
2023-02-11T21:29:54.785Z,64.25
2023-02-11T21:32:24.989Z,64.36
2023-02-11T21:34:55.225Z,64.39
2023-02-11T21:37:26.543Z,64.72
2023-02-11T21:39:59.196Z,64.29
2023-02-11T21:42:29.196Z,64.44
2023-02-11T21:44:59.645Z,64.05
2023-02-11T21:47:29.930Z,64.23
2023-02-11T21:49:59.980Z,64.63
2023-02-11T21:52:30.146Z,64.48
2023-02-11T21:55:03.535Z,64.60
2023-02-11T21:57:33.998Z,64.86
2023-02-11T22:00:04.269Z,64.78
2023-02-11T22:02:35.677Z,65.18
2023-02-11T22:05:06.888Z,65.29
2023-02-11T22:07:38.653Z,65.58
2023-02-11T22:10:12.807Z,65.63
2023-02-11T22:12:43.110Z,65.82
2023-02-11T22:15:13.466Z,65.72
2023-02-11T22:17:43.827Z,65.54
2023-02-11T22:20:15.848Z,65.40
2023-02-11T22:22:45.937Z,65.53
2023-02-11T22:25:18.854Z,65.19
2023-02-11T22:27:48.916Z,65.37
2023-02-11T22:30:19.326Z,65.31
2023-02-11T22:32:49.451Z,65.18
2023-02-11T22:35:19.569Z,64.77
2023-02-11T22:37:49.662Z,65.11
2023-02-11T22:40:23.577Z,64.89
2023-02-11T22:42:53.646Z,64.75
2023-02-11T22:45:23.753Z,64.70
2023-02-11T22:47:54.363Z,64.81
2023-02-11T22:50:24.450Z,64.94
2023-02-11T22:52:54.623Z,64.66
2023-02-11T22:55:27.401Z,65.22
2023-02-11T22:57:57.690Z,65.09
2023-02-11T23:00:33.784Z,65.07
2023-02-11T23:03:03.970Z,65.22
2023-02-11T23:05:34.083Z,65.33
2023-02-11T23:08:04.091Z,65.40
2023-02-11T23:10:37.516Z,65.90
2023-02-11T23:13:10.493Z,66.58
2023-02-11T23:15:42.950Z,67.03
2023-02-11T23:18:14.436Z,67.34
2023-02-11T23:20:46.576Z,67.17
2023-02-11T23:23:16.585Z,67.06
2023-02-11T23:25:49.181Z,66.78
2023-02-11T23:28:19.337Z,66.19
2023-02-11T23:30:49.571Z,66.69
2023-02-11T23:33:19.677Z,66.72
2023-02-11T23:35:49.807Z,66.65
2023-02-11T23:38:19.894Z,67.12
2023-02-11T23:40:52.536Z,67.14
2023-02-11T23:43:24.378Z,67.51
2023-02-11T23:45:55.056Z,67.84
2023-02-11T23:48:25.287Z,68.21
2023-02-11T23:50:55.442Z,68.40
2023-02-11T23:53:25.494Z,68.46
2023-02-11T23:55:58.102Z,68.02
2023-02-11T23:58:28.240Z,67.68
